Time;durP1;ratioP1;P1;durP2;ratioP2;P2;SDS_P1;SDS_P2;PMS_P1;PMS_P2;Temp;Humidity;BMP_temperature;BMP_pressure;BME280_temperature;BME280_humidity;BME280_pressure;Samples;Min_cycle;Max_cycle;Signal;HPM_P1;HPM_P2
2022/01/13 00:02:31;;;;;;;1.70;1.48;;;;;;;17.89;50.63;104153.38;4855569;29;20044;-79
2022/01/13 00:04:57;;;;;;;1.73;1.48;;;;;;;17.87;50.77;104147.19;4838634;29;20049;-79
2022/01/13 00:07:22;;;;;;;1.98;1.60;;;;;;;17.87;50.70;104149.81;4851820;29;20037;-79
2022/01/13 00:09:48;;;;;;;2.75;1.70;;;;;;;17.89;50.49;104155.09;4849820;29;20052;-79
2022/01/13 00:12:16;;;;;;;1.67;1.45;;;;;;;17.86;50.60;104153.25;4834570;29;20485;-79
2022/01/13 00:15:06;;;;;;;2.08;1.40;;;;;;;17.87;50.71;104161.94;4850615;29;20044;-79
2022/01/13 00:18:14;;;;;;;2.00;1.60;;;;;;;17.88;50.51;104155.94;4854522;29;20033;-79
2022/01/13 00:23:39;;;;;;;1.73;1.50;;;;;;;17.87;50.52;104147.19;4867793;29;20477;-79
2022/01/13 00:25:36;;;;;;;1.90;1.60;;;;;;;17.86;50.45;104148.03;4864128;29;20480;-79
2022/01/13 00:28:06;;;;;;;1.90;1.40;;;;;;;17.86;50.62;104155.84;4864010;29;20080;-79
2022/01/13 00:30:32;;;;;;;3.00;1.40;;;;;;;17.85;50.63;104148.84;4849278;29;20033;-79
2022/01/13 00:32:58;;;;;;;2.10;1.42;;;;;;;17.85;50.33;104151.44;4850784;29;20507;-79
2022/01/13 00:35:23;;;;;;;2.30;1.60;;;;;;;17.84;50.62;104141.00;4866058;29;20097;-80
2022/01/13 00:37:49;;;;;;;1.48;1.38;;;;;;;17.85;50.57;104146.25;4836562;29;20604;-79
2022/01/13 00:40:15;;;;;;;2.17;1.77;;;;;;;17.86;50.65;104147.16;4857398;29;20038;-79
2022/01/13 00:42:40;;;;;;;1.40;1.17;;;;;;;17.85;50.37;104141.03;4861180;29;20132;-79
2022/01/13 00:45:07;;;;;;;1.92;1.50;;;;;;;17.85;50.38;104151.44;4841404;29;20089;-79
2022/01/13 00:47:35;;;;;;;1.40;1.20;;;;;;;17.84;50.54;104148.81;4838800;29;20130;-79
2022/01/13 00:50:00;;;;;;;1.50;1.30;;;;;;;17.83;50.47;104147.00;4827772;29;20038;-79
2022/01/13 00:52:26;;;;;;;1.80;1.40;;;;;;;17.83;50.51;104144.41;4843288;29;20072;-79
2022/01/13 00:54:52;;;;;;;1.38;1.20;;;;;;;17.83;50.32;104144.41;4860632;29;20037;-79
2022/01/13 00:57:18;;;;;;;1.65;1.35;;;;;;;17.83;50.46;104150.53;4860853;29;20048;-79
2022/01/13 00:59:44;;;;;;;1.50;1.20;;;;;;;17.82;50.63;104153.06;4861593;29;20065;-79
2022/01/13 01:02:09;;;;;;;1.55;1.40;;;;;;;17.82;50.46;104159.16;4859017;29;20489;-79
2022/01/13 01:04:34;;;;;;;1.60;1.20;;;;;;;17.82;50.52;104159.16;4840969;29;20044;-79
2022/01/13 01:07:00;;;;;;;1.40;1.30;;;;;;;17.81;50.41;104161.66;4839264;29;20069;-79
2022/01/13 01:09:48;;;;;;;1.38;1.10;;;;;;;17.81;50.48;104159.97;4869983;29;20068;-80
2022/01/13 01:12:11;;;;;;;1.85;1.48;;;;;;;17.81;50.36;104161.66;4842549;29;20128;-79
2022/01/13 01:14:42;;;;;;;1.67;1.20;;;;;;;17.81;50.54;104159.97;4837775;29;20034;-79
2022/01/13 01:17:07;;;;;;;1.60;1.20;;;;;;;17.80;50.38;104160.78;4851657;29;20048;-79
2022/01/13 01:19:33;;;;;;;1.70;1.20;;;;;;;17.81;50.43;104161.66;4872002;29;20041;-79
2022/01/13 01:27:17;;;;;;;1.42;1.10;;;;;;;17.80;50.39;104170.31;4852806;29;20124;-79
2022/01/13 01:29:51;;;;;;;1.73;1.27;;;;;;;17.80;50.37;104170.31;4839228;29;20033;-80
2022/01/13 01:32:17;;;;;;;2.42;1.20;;;;;;;17.79;50.52;104172.03;4868593;29;20045;-78
2022/01/13 01:35:01;;;;;;;1.48;1.20;;;;;;;17.81;50.36;104173.00;4836081;29;20098;-78
2022/01/13 01:37:30;;;;;;;2.85;1.10;;;;;;;17.79;50.37;104165.91;4851847;29;20049;-79
2022/01/13 01:39:58;;;;;;;1.42;1.10;;;;;;;17.79;50.50;104166.81;4864727;29;20517;-79
2022/01/13 01:42:25;;;;;;;1.25;1.00;;;;;;;17.79;50.22;104163.28;4865189;29;20033;-78
2022/01/13 01:44:54;;;;;;;1.85;1.20;;;;;;;17.79;50.38;104155.47;4864629;29;20045;-78
2022/01/13 01:47:23;;;;;;;1.40;1.20;;;;;;;17.78;50.18;104151.13;4847845;29;20037;-79
2022/01/13 01:49:56;;;;;;;1.33;1.13;;;;;;;17.78;50.48;104152.00;4863982;29;20074;-79
2022/01/13 01:52:22;;;;;;;1.10;1.00;;;;;;;17.77;50.46;104150.22;4863938;29;20046;-79
2022/01/13 01:54:49;;;;;;;1.58;1.30;;;;;;;17.77;50.36;104158.03;4850871;29;20042;-79
2022/01/13 01:57:16;;;;;;;1.67;1.30;;;;;;;17.77;50.55;104142.41;4847631;29;20034;-79
2022/01/13 01:59:43;;;;;;;1.13;1.02;;;;;;;17.76;50.22;104140.63;4846529;29;20038;-79
2022/01/13 02:02:12;;;;;;;1.27;1.00;;;;;;;17.77;50.40;104134.59;4846638;29;20037;-79
2022/01/13 02:04:37;;;;;;;1.65;1.20;;;;;;;17.76;50.22;104139.72;4863269;29;20058;-79
2022/01/13 02:07:07;;;;;;;1.38;1.23;;;;;;;17.75;50.55;104144.06;4847890;29;20128;-79
2022/01/13 02:09:37;;;;;;;1.23;1.08;;;;;;;17.75;50.42;104136.25;4865683;29;20041;-79
2022/01/13 02:12:10;;;;;;;1.45;1.00;;;;;;;17.75;50.49;104133.66;4835210;29;20041;-79
2022/01/13 02:14:50;;;;;;;1.48;1.30;;;;;;;17.75;50.57;104131.03;4849367;29;20128;-79
2022/01/13 02:17:22;;;;;;;1.65;1.33;;;;;;;17.73;50.40;104129.19;4851509;29;20045;-79
2022/01/13 02:19:50;;;;;;;1.40;1.20;;;;;;;17.72;50.53;104130.88;4850502;29;20045;-79
2022/01/13 02:22:16;;;;;;;1.75;1.30;;;;;;;17.73;50.39;104124.88;4850335;29;20041;-79
2022/01/13 02:24:41;;;;;;;2.00;1.20;;;;;;;17.73;50.41;104132.69;4834009;29;20503;-79
2022/01/13 02:27:07;;;;;;;1.38;1.00;;;;;;;17.74;50.21;104128.34;4849535;29;20121;-79
2022/01/13 02:29:33;;;;;;;1.35;1.10;;;;;;;17.73;50.49;104124.00;4865280;29;20042;-79
2022/01/13 02:31:59;;;;;;;1.48;1.20;;;;;;;17.72;50.40;104117.88;4866452;29;20045;-79
2022/01/13 02:34:25;;;;;;;2.13;1.40;;;;;;;17.71;50.46;104118.72;4834430;29;20045;-79
2022/01/13 02:36:53;;;;;;;1.33;1.08;;;;;;;17.72;50.36;104120.47;4852862;29;20437;-78
2022/01/13 02:39:21;;;;;;;1.20;1.10;;;;;;;17.71;50.42;104118.72;4863325;29;20037;-79
2022/01/13 02:41:46;;;;;;;1.52;1.20;;;;;;;17.72;50.29;104111.78;4863285;29;20025;-79
2022/01/13 02:44:16;;;;;;;1.10;1.00;;;;;;;17.71;50.45;104110.91;4831272;29;20057;-79
2022/01/13 02:49:11;;;;;;;1.10;0.98;;;;;;;17.71;50.43;104112.63;4863230;29;20480;-79
2022/01/13 02:51:39;;;;;;;1.90;1.02;;;;;;;17.70;50.18;104116.91;4861868;29;20076;-78
2022/01/13 02:54:05;;;;;;;1.30;1.20;;;;;;;17.71;50.28;104112.63;4863276;29;20044;-79
2022/01/13 02:56:31;;;;;;;2.30;1.23;;;;;;;17.69;50.31;104118.63;4831201;29;20496;-79
2022/01/13 02:58:56;;;;;;;1.20;1.10;;;;;;;17.70;50.28;104111.69;4831272;29;20048;-79
2022/01/13 03:01:23;;;;;;;1.20;1.10;;;;;;;17.69;50.53;104109.94;4846891;29;20504;-79
2022/01/13 03:03:48;;;;;;;1.65;1.10;;;;;;;17.68;50.23;104111.66;4846472;29;20132;-79
2022/01/13 03:06:17;;;;;;;1.20;1.05;;;;;;;17.69;50.29;104107.34;4864241;29;20476;-79
2022/01/13 03:08:46;;;;;;;1.70;1.10;;;;;;;17.67;50.25;104104.66;4848001;29;20033;-79
2022/01/13 03:11:12;;;;;;;1.52;1.30;;;;;;;17.68;50.36;104111.66;4847992;29;20044;-79
2022/01/13 03:13:38;;;;;;;1.75;1.40;;;;;;;17.69;50.52;104112.53;4848990;29;20046;-79
2022/01/13 03:16:09;;;;;;;1.33;1.20;;;;;;;17.68;50.39;104106.44;4848782;29;20089;-79
2022/01/13 03:18:35;;;;;;;1.42;1.10;;;;;;;17.68;50.42;104114.25;4852166;29;20037;-79
2022/01/13 03:21:00;;;;;;;1.75;1.20;;;;;;;17.69;50.46;104109.94;4861523;29;20029;-79
2022/01/13 03:23:26;;;;;;;1.45;1.10;;;;;;;17.67;50.29;104096.84;4831114;29;20064;-79
2022/01/13 03:25:51;;;;;;;1.30;1.10;;;;;;;17.67;50.31;104103.78;4846100;29;20049;-79
2022/01/13 03:28:28;;;;;;;1.38;1.15;;;;;;;17.68;50.42;104106.44;4846253;29;20041;-79
2022/01/13 03:30:54;;;;;;;1.48;1.10;;;;;;;17.67;50.33;104096.84;4833734;29;20045;-79
2022/01/13 03:33:19;;;;;;;1.42;1.17;;;;;;;17.67;50.28;104102.06;4846488;29;20045;-79
2022/01/13 03:35:45;;;;;;;1.65;1.30;;;;;;;17.67;50.29;104090.75;4846009;29;20049;-79
2022/01/13 03:38:10;;;;;;;1.40;1.30;;;;;;;17.66;50.33;104087.25;4846491;29;20633;-79
2022/01/13 03:40:36;;;;;;;1.80;1.30;;;;;;;17.66;50.45;104086.38;4863518;29;20041;-79
2022/01/13 03:43:02;;;;;;;1.90;1.40;;;;;;;17.66;50.23;104086.38;4865826;29;20042;-79
2022/01/13 03:45:28;;;;;;;1.35;1.20;;;;;;;17.66;50.29;104089.00;4851107;29;20113;-79
2022/01/13 03:47:54;;;;;;;1.40;1.30;;;;;;;17.66;50.07;104087.25;4834783;29;20037;-79
2022/01/13 03:50:20;;;;;;;1.40;1.30;;;;;;;17.65;50.41;104084.59;4837425;29;20044;-79
2022/01/13 03:53:01;;;;;;;1.30;1.20;;;;;;;17.65;50.15;104090.69;4870242;29;20042;-79
2022/01/13 03:55:36;;;;;;;2.08;1.40;;;;;;;17.65;50.24;104089.78;4855977;29;20450;-79
2022/01/13 03:58:38;;;;;;;1.25;1.05;;;;;;;17.64;50.16;104075.88;4855603;29;20485;-79
2022/01/13 04:01:40;;;;;;;1.42;1.20;;;;;;;17.65;50.40;104074.16;4870162;29;20037;-79
2022/01/13 04:04:06;;;;;;;1.45;1.30;;;;;;;17.64;50.32;104075.00;4867467;29;20044;-79
2022/01/13 04:06:43;;;;;;;1.45;1.30;;;;;;;17.62;50.37;104061.91;4850672;29;20046;-79
2022/01/13 04:09:49;;;;;;;1.40;1.10;;;;;;;17.63;50.20;104066.28;4867612;29;20097;-79
2022/01/13 04:12:15;;;;;;;1.30;1.20;;;;;;;17.63;50.18;104065.41;4851123;29;20068;-79
2022/01/13 04:17:08;;;;;;;1.17;1.08;;;;;;;17.63;50.34;104057.59;4853457;29;20038;-79
2022/01/13 04:19:34;;;;;;;1.67;1.30;;;;;;;17.63;50.32;104060.19;4872000;29;20057;-78
2022/01/13 04:21:59;;;;;;;1.50;1.33;;;;;;;17.62;50.43;104061.03;4855839;29;20474;-79
2022/01/13 04:24:25;;;;;;;1.30;1.20;;;;;;;17.62;50.09;104063.63;4856796;29;20141;-79
2022/01/13 04:26:53;;;;;;;1.70;1.30;;;;;;;17.61;50.36;104067.94;4841955;29;20044;-79
2022/01/13 04:29:27;;;;;;;1.48;1.25;;;;;;;17.61;50.35;104064.44;4856759;29;20041;-78
2022/01/13 04:31:53;;;;;;;1.40;1.20;;;;;;;17.61;50.27;104061.84;4856976;29;20048;-79
2022/01/13 04:34:19;;;;;;;1.88;1.30;;;;;;;17.60;50.31;104066.16;4870955;29;20045;-78
2022/01/13 04:36:45;;;;;;;1.75;1.38;;;;;;;17.60;50.37;104060.97;4840949;29;20049;-78
2022/01/13 04:39:12;;;;;;;1.58;1.00;;;;;;;17.60;50.16;104067.88;4855358;29;20044;-79
2022/01/13 04:41:39;;;;;;;1.35;1.23;;;;;;;17.60;50.24;104065.28;4840266;29;20066;-78
2022/01/13 04:44:11;;;;;;;1.48;1.20;;;;;;;17.61;50.31;104061.84;4868040;29;20037;-79
2022/01/13 04:46:37;;;;;;;1.35;1.20;;;;;;;17.60;50.49;104060.06;4849506;29;20045;-78
2022/01/13 04:49:04;;;;;;;1.50;1.30;;;;;;;17.59;50.31;104064.38;4850148;29;20042;-79
2022/01/13 04:51:30;;;;;;;1.60;1.08;;;;;;;17.60;50.28;104062.69;4836252;29;20072;-79
2022/01/13 04:53:55;;;;;;;1.15;1.05;;;;;;;17.59;50.37;104060.88;4868715;29;20397;-79
2022/01/13 04:59:06;;;;;;;1.65;1.23;;;;;;;17.58;50.36;104057.41;4841171;29;20113;-79
2022/01/13 05:01:32;;;;;;;1.33;1.00;;;;;;;17.59;50.22;104060.88;4836514;29;20041;-78
2022/01/13 05:03:57;;;;;;;1.20;1.10;;;;;;;17.58;50.32;104067.81;4851949;29;20053;-78
2022/01/13 05:06:23;;;;;;;1.20;1.10;;;;;;;17.58;50.25;104067.81;4851564;29;20042;-79
2022/01/13 05:08:49;;;;;;;1.05;0.95;;;;;;;17.58;50.38;104060.00;4850395;29;20048;-79
2022/01/13 05:11:16;;;;;;;1.30;1.05;;;;;;;17.58;50.25;104067.81;4851829;29;20160;-80
2022/01/13 05:13:42;;;;;;;1.60;1.15;;;;;;;17.57;50.26;104063.44;4836705;29;20041;-80
2022/01/13 05:16:15;;;;;;;1.20;1.00;;;;;;;17.58;50.45;104072.13;4851655;29;20560;-80
2022/01/13 05:18:57;;;;;;;1.42;1.13;;;;;;;17.57;50.42;104062.53;4851348;29;20044;-80
2022/01/13 05:22:17;;;;;;;1.30;1.10;;;;;;;17.56;50.22;104074.66;4841648;29;20056;-82
2022/01/13 05:24:26;;;;;;;1.20;1.10;;;;;;;17.57;50.50;104072.94;4867273;29;20573;-81
2022/01/13 05:29:27;;;;;;;1.10;1.00;;;;;;;17.56;50.24;104076.41;4891344;23;20062;-81
2022/01/13 05:31:52;;;;;;;1.58;1.20;;;;;;;17.56;50.31;104081.59;4835949;29;20095;-80
2022/01/13 05:34:17;;;;;;;1.17;1.00;;;;;;;17.55;50.30;104079.81;4832595;29;20044;-79
2022/01/13 05:36:44;;;;;;;1.15;0.93;;;;;;;17.54;50.30;104086.72;4833509;29;20175;-80
2022/01/13 05:39:10;;;;;;;1.63;1.10;;;;;;;17.55;50.16;104087.63;4817356;29;20382;-80
2022/01/13 05:41:35;;;;;;;1.30;1.10;;;;;;;17.56;50.37;104089.41;4832671;29;20040;-80
2022/01/13 05:44:01;;;;;;;1.10;1.00;;;;;;;17.56;50.45;104092.03;4817222;29;20097;-79
2022/01/13 05:46:26;;;;;;;1.05;0.95;;;;;;;17.57;50.22;104096.38;4832349;29;20493;-79
2022/01/13 05:48:54;;;;;;;1.20;1.02;;;;;;;17.57;50.31;104085.97;4817501;29;20045;-80
2022/01/13 05:51:20;;;;;;;1.95;1.20;;;;;;;17.57;50.55;104089.50;4848965;29;20042;-82
2022/01/13 05:53:46;;;;;;;1.10;1.00;;;;;;;17.58;50.50;104095.56;4850718;29;20034;-83
2022/01/13 05:56:12;;;;;;;1.35;1.00;;;;;;;17.59;50.28;104087.81;4836550;29;20050;-83
2022/01/13 05:58:37;;;;;;;1.40;1.02;;;;;;;17.60;50.31;104088.72;4835958;29;20042;-82
2022/01/13 06:01:03;;;;;;;1.40;0.93;;;;;;;17.60;50.28;104092.22;4842020;29;20501;-82
2022/01/13 06:03:28;;;;;;;1.15;1.02;;;;;;;17.59;50.44;104092.13;4811461;29;20046;-80
2022/01/13 06:05:54;;;;;;;1.50;1.10;;;;;;;17.59;50.55;104098.22;4819437;29;20072;-80
2022/01/13 06:08:19;;;;;;;1.20;1.00;;;;;;;17.60;50.49;104088.72;4816190;29;20533;-81
2022/01/13 06:10:46;;;;;;;2.38;1.15;;;;;;;17.59;50.45;104092.13;4810545;29;20042;-79
2022/01/13 06:20:04;;;;;;;8.43;2.33;;;;;;;17.61;50.99;104091.38;4862929;29;20121;-81
2022/01/13 06:22:29;;;;;;;8.00;2.42;;;;;;;17.60;50.89;104088.72;4858806;29;20045;-82
2022/01/13 06:25:16;;;;;;;5.95;2.50;;;;;;;17.61;50.83;104085.28;4843890;29;20094;-82
2022/01/13 06:28:10;;;;;;;6.78;2.72;;;;;;;17.62;50.99;104089.69;4861436;29;20025;-82
2022/01/13 06:30:58;;;;;;;7.45;2.63;;;;;;;17.60;50.83;104080.91;4809221;29;20073;-82
2022/01/13 06:33:23;;;;;;;9.27;2.80;;;;;;;17.60;51.03;104076.59;4806788;30;20046;-81
2022/01/13 06:38:24;;;;;;;8.23;2.72;;;;;;;17.60;51.05;104075.69;4958743;23;20279;-80
2022/01/13 06:40:50;;;;;;;6.53;2.75;;;;;;;17.60;51.07;104078.31;4859558;29;20093;-79
2022/01/13 06:43:16;;;;;;;7.80;3.30;;;;;;;17.61;51.05;104074.88;4857382;29;20399;-79
2022/01/13 06:45:42;;;;;;;8.77;2.97;;;;;;;17.61;51.05;104085.28;4871240;29;20094;-79
2022/01/13 06:48:07;;;;;;;5.22;2.55;;;;;;;17.61;51.20;104086.16;4887235;29;20480;-80
2022/01/13 06:50:33;;;;;;;6.45;2.78;;;;;;;17.61;51.04;104073.13;4865789;29;20037;-80
2022/01/13 06:52:59;;;;;;;6.93;3.03;;;;;;;17.61;51.19;104067.94;4852770;29;20037;-80
2022/01/13 06:55:24;;;;;;;7.68;2.70;;;;;;;17.61;51.09;104067.94;4854728;29;20037;-79
2022/01/13 06:57:50;;;;;;;4.97;2.47;;;;;;;17.60;51.31;104060.97;4856037;29;20181;-79
2022/01/13 07:00:15;;;;;;;6.05;3.05;;;;;;;17.62;51.15;104071.44;4840948;29;20039;-80
2022/01/13 07:02:41;;;;;;;6.20;2.97;;;;;;;17.61;51.11;104061.84;4870900;29;20044;-80
2022/01/13 07:05:07;;;;;;;7.03;2.83;;;;;;;17.61;51.20;104070.53;4855624;29;20069;-81
2022/01/13 07:07:35;;;;;;;7.15;2.75;;;;;;;17.62;51.12;104072.34;4841977;29;20063;-80
2022/01/13 07:10:00;;;;;;;5.78;2.95;;;;;;;17.61;51.19;104075.75;4868056;29;20037;-80
2022/01/13 07:12:26;;;;;;;5.15;2.70;;;;;;;17.62;51.21;104081.88;4855082;29;20045;-81
2022/01/13 07:14:51;;;;;;;9.57;2.90;;;;;;;17.62;51.06;104077.53;4856623;29;20071;-81
2022/01/13 07:17:16;;;;;;;4.70;2.50;;;;;;;17.63;51.59;104070.59;4856877;29;20048;-81
2022/01/13 07:19:45;;;;;;;5.47;2.88;;;;;;;17.62;51.42;104074.94;4872443;29;20136;-81
2022/01/13 07:22:11;;;;;;;6.80;2.80;;;;;;;17.63;51.57;104078.41;4871432;29;20041;-80
2022/01/13 07:24:36;;;;;;;5.45;2.42;;;;;;;17.63;51.33;104075.81;4840637;29;20044;-80
2022/01/13 07:27:02;;;;;;;5.97;2.80;;;;;;;17.63;51.25;104079.31;4871900;29;20473;-81
2022/01/13 07:29:27;;;;;;;5.20;2.40;;;;;;;17.64;51.32;104080.22;4857464;29;20065;-80
2022/01/13 07:31:53;;;;;;;5.35;2.78;;;;;;;17.62;51.29;104080.16;4835185;29;20033;-81
2022/01/13 07:34:18;;;;;;;4.55;2.25;;;;;;;17.64;51.38;104090.63;4853587;29;20048;-81
2022/01/13 07:36:44;;;;;;;5.20;2.22;;;;;;;17.64;51.28;104101.06;4880086;29;20061;-80
2022/01/13 07:39:09;;;;;;;5.85;2.88;;;;;;;17.63;51.57;104097.53;4849352;29;20068;-80
2022/01/13 07:41:37;;;;;;;5.35;2.45;;;;;;;17.64;51.33;104095.84;4849555;29;20042;-80
2022/01/13 07:44:03;;;;;;;4.20;2.40;;;;;;;17.63;51.59;104101.84;4864975;29;20109;-76
2022/01/13 07:46:29;;;;;;;4.35;2.45;;;;;;;17.64;51.46;104103.66;4849565;29;20067;-79
2022/01/13 07:48:54;;;;;;;4.82;2.25;;;;;;;17.65;51.48;104108.03;4866939;29;20434;-79
2022/01/13 07:51:20;;;;;;;4.97;2.83;;;;;;;17.65;51.13;104108.91;4837816;29;20048;-78
2022/01/13 07:53:46;;;;;;;4.20;2.58;;;;;;;17.64;51.22;104101.06;4869158;29;20037;-79
2022/01/13 07:56:11;;;;;;;4.15;2.40;;;;;;;17.64;51.49;104103.66;4838532;29;20049;-79
2022/01/13 07:58:37;;;;;;;4.40;2.28;;;;;;;17.64;51.16;104107.13;4838818;29;20042;-78
2022/01/13 08:01:04;;;;;;;4.85;2.45;;;;;;;17.64;51.21;104107.13;4869083;29;20045;-79
2022/01/13 08:03:30;;;;;;;4.03;2.28;;;;;;;17.64;51.30;104107.13;4869889;29;20504;-78
2022/01/13 08:05:55;;;;;;;3.80;2.22;;;;;;;17.65;51.23;104113.22;4869685;29;20113;-77
2022/01/13 08:08:21;;;;;;;3.15;2.10;;;;;;;17.65;51.27;104116.72;4838689;29;20056;-78
2022/01/13 08:10:46;;;;;;;3.85;2.30;;;;;;;17.65;51.38;104121.94;4852694;29;20105;-79
2022/01/13 08:13:12;;;;;;;4.32;2.20;;;;;;;17.66;51.21;104115.03;4836393;29;20068;-79
2022/01/13 08:15:37;;;;;;;3.60;2.33;;;;;;;17.66;51.34;104112.44;4867935;29;20037;-79
2022/01/13 08:20:47;;;;;;;3.50;2.03;;;;;;;17.64;51.26;104112.34;4868224;29;20504;-79
2022/01/13 08:23:12;;;;;;;2.75;2.22;;;;;;;17.65;51.50;104110.63;4867584;29;20053;-79
2022/01/13 08:25:38;;;;;;;3.45;2.10;;;;;;;17.64;51.42;104112.34;4867411;29;20042;-79
2022/01/13 08:28:05;;;;;;;3.15;2.05;;;;;;;17.63;51.46;104107.06;4869100;29;20392;-79
2022/01/13 08:30:31;;;;;;;4.28;2.22;;;;;;;17.63;51.49;104110.56;4840177;29;20041;-78
2022/01/13 08:32:56;;;;;;;3.50;2.03;;;;;;;17.64;51.19;104121.88;4871036;29;20132;-78
2022/01/13 08:35:22;;;;;;;3.03;2.05;;;;;;;17.63;51.34;104112.28;4870073;29;20401;-79
2022/01/13 08:37:47;;;;;;;3.42;2.28;;;;;;;17.63;51.37;104115.75;4852207;29;20060;-78
2022/01/13 08:40:14;;;;;;;3.10;2.05;;;;;;;17.63;51.32;104118.38;4870246;29;20037;-78
2022/01/13 08:42:39;;;;;;;4.50;2.50;;;;;;;17.62;51.43;104114.00;4855807;29;20605;-79
2022/01/13 08:45:08;;;;;;;3.80;2.33;;;;;;;17.63;51.30;104122.69;4856566;29;20057;-79
2022/01/13 08:47:34;;;;;;;3.22;2.10;;;;;;;17.62;51.45;104120.94;4871512;29;20029;-79
2022/01/13 08:49:59;;;;;;;2.80;2.00;;;;;;;17.61;51.39;104125.22;4857491;29;20124;-81
2022/01/13 08:56:05;;;;;;;3.33;2.08;;;;;;;17.80;51.31;104123.41;5202038;23;20075;-81
2022/01/13 09:02:33;;;;;;;2.67;1.85;;;;;;;17.89;51.18;104119.50;4866733;29;20045;-82
2022/01/13 10:26:21;;;;;;;4.47;2.17;;;;;;;18.02;50.98;104112.19;5242325;24;20375;-82
2022/01/13 10:29:00;;;;;;;2.65;2.03;;;;;;;18.02;51.03;104104.38;4857232;29;20034;-81
2022/01/13 10:32:13;;;;;;;3.03;1.90;;;;;;;18.04;51.14;104110.53;4849743;29;20046;-82
2022/01/13 10:38:38;;;;;;;3.05;2.28;;;;;;;18.08;51.20;104110.72;4864940;29;20277;-82
2022/01/13 10:45:20;;;;;;;4.40;2.30;;;;;;;18.09;51.02;104117.72;4792360;30;20158;-82
2022/01/13 10:54:43;;;;;;;2.80;2.20;;;;;;;18.13;51.10;104099.59;4789895;30;20050;-82
2022/01/13 10:57:44;;;;;;;3.05;2.10;;;;;;;18.13;50.97;104097.88;4713841;30;20053;-80
2022/01/13 11:00:35;;;;;;;3.17;1.92;;;;;;;18.16;51.03;104095.41;4715721;30;20052;-82
2022/01/13 11:03:26;;;;;;;2.80;2.15;;;;;;;18.16;51.10;104098.00;4699317;30;20104;-81
2022/01/13 11:06:13;;;;;;;;;;;;;;;18.17;50.86;104104.97;4711464;30;20541;-81
2022/01/13 11:09:00;;;;;;;4.00;2.05;;;;;;;18.16;50.99;104095.41;4710702;30;20009;-81
2022/01/13 11:11:45;;;;;;;2.30;2.10;;;;;;;18.17;50.83;104101.50;4712281;30;20056;-81
2022/01/13 11:14:24;;;;;;;2.72;2.00;;;;;;;18.17;51.19;104093.69;4697457;30;20108;-81
2022/01/13 11:17:10;;;;;;;2.45;1.90;;;;;;;18.17;51.11;104091.94;4696379;30;20054;-81
2022/01/13 11:19:47;;;;;;;2.30;1.80;;;;;;;18.16;50.95;104077.16;4710654;30;20049;-81
2022/01/13 11:22:23;;;;;;;2.75;2.20;;;;;;;18.19;50.60;104085.09;4709507;30;20375;-81
2022/01/13 11:24:57;;;;;;;4.20;2.05;;;;;;;18.20;50.99;104081.63;4710418;30;20059;-81
2022/01/13 11:27:45;;;;;;;2.47;2.00;;;;;;;18.20;50.84;104086.84;4742512;30;20039;-81
2022/01/13 11:30:16;;;;;;;2.90;1.98;;;;;;;18.21;50.72;104078.22;4807196;29;20043;-81
2022/01/13 11:32:46;;;;;;;2.65;1.80;;;;;;;18.24;51.00;104082.66;4845609;29;20026;-82
2022/01/13 11:35:25;;;;;;;2.28;1.98;;;;;;;18.24;50.93;104082.66;4845700;29;20038;-81
2022/01/13 11:37:58;;;;;;;2.50;1.70;;;;;;;18.22;50.88;104073.88;4840012;29;20050;-81
2022/01/13 11:40:42;;;;;;;2.60;1.63;;;;;;;18.21;51.14;104078.22;4819371;29;20035;-81
2022/01/13 11:43:26;;;;;;;3.20;2.05;;;;;;;18.21;50.80;104075.59;4835782;29;20394;-81
2022/01/13 11:45:52;;;;;;;;;;;;;;;18.21;50.99;104073.00;4818731;29;20586;-81
2022/01/13 11:48:24;;;;;;;3.22;2.17;;;;;;;18.20;50.93;104067.72;4820058;29;19917;-81
2022/01/13 11:51:01;;;;;;;2.53;1.83;;;;;;;18.20;51.05;104073.81;4836408;29;20145;-81
2022/01/13 11:53:33;;;;;;;2.60;2.13;;;;;;;18.20;50.98;104071.22;4834337;29;20087;-81
2022/01/13 11:56:01;;;;;;;2.22;1.88;;;;;;;18.19;50.91;104072.06;4818671;29;20046;-81
2022/01/13 11:58:39;;;;;;;2.28;1.65;;;;;;;18.18;50.91;104075.50;4835318;29;20038;-81
2022/01/13 12:01:20;;;;;;;3.03;1.83;;;;;;;18.18;50.99;104071.97;4818849;29;20043;-81
2022/01/13 12:04:10;;;;;;;3.70;1.90;;;;;;;18.17;51.18;104065.00;4835631;29;20378;-81
2022/01/13 12:06:49;;;;;;;2.55;2.10;;;;;;;18.15;51.35;104064.94;4834773;29;20057;-81
2022/01/13 12:09:21;;;;;;;2.30;1.90;;;;;;;18.16;51.06;104051.09;4833088;29;20038;-81
2022/01/13 12:11:54;;;;;;;3.03;2.00;;;;;;;18.16;51.04;104050.19;4833115;29;20099;-81
2022/01/13 12:14:43;;;;;;;2.47;2.10;;;;;;;18.15;51.12;104046.69;4832521;29;20049;-81
2022/01/13 12:17:23;;;;;;;2.58;1.75;;;;;;;18.16;51.14;104048.47;4831768;29;20042;-81
2022/01/13 12:19:51;;;;;;;2.42;1.98;;;;;;;18.15;51.04;104051.03;4833985;29;20058;-81
2022/01/13 12:22:36;;;;;;;2.95;2.17;;;;;;;18.16;51.12;104052.78;4816447;29;20110;-81
2022/01/13 12:25:08;;;;;;;2.22;1.80;;;;;;;18.14;50.96;104059.66;4829503;29;20035;-81
2022/01/13 12:27:55;;;;;;;2.80;1.90;;;;;;;18.14;51.06;104055.34;4821027;29;20054;-81
2022/01/13 12:30:21;;;;;;;3.35;2.00;;;;;;;18.14;50.96;104047.53;4831749;29;20045;-80
2022/01/13 12:32:58;;;;;;;2.58;1.92;;;;;;;18.14;50.94;104036.19;4831082;29;20030;-81
2022/01/13 12:35:44;;;;;;;2.42;1.85;;;;;;;18.14;51.00;104033.59;4849410;29;20042;-81
2022/01/13 12:38:19;;;;;;;3.47;1.90;;;;;;;18.13;50.89;104031.81;4852741;29;20034;-81
2022/01/13 12:41:15;;;;;;;2.53;2.00;;;;;;;18.13;51.12;104022.28;4851608;29;20037;-81
2022/01/13 12:46:13;;;;;;;2.47;1.90;;;;;;;18.12;50.97;104020.53;4836602;29;20383;-81
2022/01/13 12:48:42;;;;;;;2.50;2.00;;;;;;;18.12;50.76;104023.13;4836245;29;20061;-81
2022/01/13 12:51:12;;;;;;;2.28;1.90;;;;;;;18.12;51.20;104017.00;4836764;29;20052;-80
2022/01/13 12:53:40;;;;;;;3.08;2.22;;;;;;;18.11;50.77;104013.50;4837282;29;20034;-80
2022/01/13 12:56:10;;;;;;;2.80;2.10;;;;;;;18.10;51.08;104014.34;4837219;29;20133;-81
2022/01/13 12:58:39;;;;;;;2.40;1.90;;;;;;;18.11;50.97;104021.34;4852893;29;20072;-81
2022/01/13 13:01:21;;;;;;;3.05;2.00;;;;;;;18.09;50.85;104013.47;4851736;29;20038;-80
2022/01/13 13:04:25;;;;;;;3.72;2.03;;;;;;;18.10;51.25;104014.34;4835463;29;20038;-81
2022/01/13 13:06:52;;;;;;;3.08;2.20;;;;;;;18.09;51.09;104023.00;4833838;29;20038;-81
2022/01/13 13:09:22;;;;;;;2.63;1.90;;;;;;;18.11;50.83;104020.44;4860108;29;20071;-80
2022/01/13 13:11:56;;;;;;;3.00;1.98;;;;;;;18.11;50.97;104016.13;4851121;29;20034;-78
2022/01/13 13:17:38;;;;;;;3.38;2.10;;;;;;;18.11;51.16;104029.16;4850532;29;20066;-80
2022/01/13 13:20:35;;;;;;;2.60;1.88;;;;;;;18.11;50.93;104020.44;4862787;29;20117;-81
2022/01/13 13:23:03;;;;;;;2.47;2.08;;;;;;;18.12;51.07;104014.41;4850412;29;20058;-80
2022/01/13 13:25:33;;;;;;;2.95;2.15;;;;;;;18.14;51.10;104021.47;4868658;29;20037;-81
2022/01/13 13:28:37;;;;;;;2.80;1.92;;;;;;;18.16;51.05;104026.72;5191682;24;20086;-82
2022/01/13 13:45:08;;;;;;;4.43;2.20;;;;;;;18.14;51.18;104018.88;4808569;30;20157;-80
2022/01/13 14:39:28;;;;;;;2.53;1.80;;;;;;;18.19;51.28;104012.09;4055217;27;20065;-82
2022/01/13 14:42:27;;;;;;;2.40;1.83;;;;;;;18.19;51.15;104003.41;4902585;29;20064;-82
2022/01/13 14:45:31;;;;;;;3.20;2.20;;;;;;;18.19;51.13;104006.00;4878061;29;20060;-82
2022/01/13 14:48:17;;;;;;;2.10;1.60;;;;;;;18.15;51.39;103991.97;4902005;29;20476;-82
2022/01/13 14:51:55;;;;;;;2.53;1.95;;;;;;;18.16;51.05;103990.22;4898375;29;20068;-83
2022/01/13 14:54:55;;;;;;;3.05;2.17;;;;;;;18.15;51.33;103984.13;4837508;29;20029;-82
2022/01/13 15:04:39;;;;;;;1.95;1.73;;;;;;;18.14;51.21;103992.81;4791803;30;20119;-82
2022/01/13 15:10:36;;;;;;;2.35;1.80;;;;;;;18.12;51.28;103999.66;4791424;30;20123;-83
2022/01/13 15:13:13;;;;;;;2.38;1.95;;;;;;;18.12;51.07;104007.50;4775789;30;20040;-82
2022/01/13 15:19:27;;;;;;;2.70;1.90;;;;;;;18.11;51.34;103992.66;4791063;30;20031;-83
2022/01/13 15:31:22;;;;;;;3.05;1.83;;;;;;;18.10;51.21;104001.31;4826742;29;20082;-83
2022/01/13 15:34:13;;;;;;;2.10;1.67;;;;;;;18.08;51.38;104002.97;4812127;29;20046;-83
2022/01/13 15:37:34;;;;;;;1.98;1.65;;;;;;;18.11;51.13;104008.31;4831969;29;20050;-83